ケープタウン の空港の天気 - METARとTAF

ケープタウン国際空港 ( FACT / CPT ) - 南アフリカ ケープタウン
飛行場実況気象(Metar)
観測時間11/12 04:00 SAST (11/12 02:00 UTC)
風向・風速不定 2m/s
視程10km以上
天気現象
全天の8割程度の雲 雲底高度 910m
気温18℃
湿度88%
気圧1012hPa
METARFACT 120200Z VRB03KT 9999 BKN030 18/16 Q1012 NOSIG
過去の天気等 Google飛行場航空写真 Wunderground天気予報

過去48時間のMETAR

飛行場予報(TAF)
発表時間: 11/12 00:00 SAST (11/11 22:00 UTC)
予報対象時間: 12日2時 SAST ~ 13日8時 SAST
風向・風速不定 2m/s
視程10km以上
全天の4割程度の雲 雲底高度 180m
全天の8割程度の雲 雲底高度 760m
12日2時 SAST ~ 12日5時 SAST に 確率 40% で一時的に
全天の8割程度の雲 雲底高度 150m
12日2時 SAST ~ 12日8時 SAST に 確率 30% で一時的に
視程4500m
天気現象弱いしゅう雨
少しの塔状積雲 雲底高度 1070m
12日10時 SAST ~ 12日12時 SAST に徐々に
風向・風速南 10m/s
視程10km以上
全天の4割程度の雲 雲底高度 1070m
TAF FACT 112200Z 1200/1306 VRB03KT 9999 SCT006 BKN025 TX21/1212Z TN15/1204Z
PROB40 TEMPO 1200/1203 BKN005
PROB30 TEMPO 1200/1206 4500 -SHRA FEW035TCU
BECMG 1208/1210 17020KT 9999 SCT035